createdAt,value
2023-04-06T00:00:54.183Z,15.87
2023-04-06T00:03:24.024Z,18.13
2023-04-06T00:05:56.782Z,20.43
2023-04-06T00:08:25.696Z,19.37
2023-04-06T00:10:54.122Z,20.60
2023-04-06T00:13:22.634Z,13.47
2023-04-06T00:15:51.134Z,16.00
2023-04-06T00:18:20.572Z,19.17
2023-04-06T00:20:51.994Z,18.90
2023-04-06T00:23:20.806Z,15.60
2023-04-06T00:25:49.338Z,16.90
2023-04-06T00:28:17.718Z,13.07
2023-04-06T00:30:47.286Z,20.43
2023-04-06T00:33:16.363Z,13.90
2023-04-06T00:35:44.797Z,15.77
2023-04-06T00:38:14.760Z,17.90
2023-04-06T00:40:43.465Z,15.40
2023-04-06T00:43:13.214Z,16.80
2023-04-06T00:45:42.151Z,19.30
2023-04-06T00:48:11.230Z,15.73
2023-04-06T00:50:39.750Z,16.33
2023-04-06T00:53:08.278Z,15.27
2023-04-06T00:55:38.822Z,18.07
2023-04-06T00:58:10.387Z,17.90
2023-04-06T01:00:47.798Z,23.17
2023-04-06T01:03:19.933Z,14.57
2023-04-06T01:05:49.262Z,16.97
2023-04-06T01:08:24.240Z,16.53
2023-04-06T01:10:58.545Z,17.10
2023-04-06T01:13:30.580Z,16.80
2023-04-06T01:16:05.381Z,15.53
2023-04-06T01:18:54.082Z,16.83
2023-04-06T01:21:29.925Z,17.40
2023-04-06T01:24:18.768Z,19.23
2023-04-06T01:27:06.627Z,20.90
2023-04-06T01:29:53.918Z,18.30
2023-04-06T01:32:50.914Z,14.23
2023-04-06T01:35:30.337Z,18.80
2023-04-06T01:38:12.897Z,17.97
2023-04-06T01:40:42.981Z,14.60
2023-04-06T01:43:12.422Z,15.13
2023-04-06T01:45:59.489Z,15.83
2023-04-06T01:48:34.176Z,18.13
2023-04-06T01:51:09.198Z,19.93
2023-04-06T01:53:46.586Z,16.10
2023-04-06T01:56:16.799Z,18.47
2023-04-06T01:58:53.758Z,18.70
2023-04-06T02:01:22.546Z,21.63
2023-04-06T02:03:58.011Z,18.13
2023-04-06T02:06:27.831Z,20.30
2023-04-06T02:08:56.659Z,15.77
2023-04-06T02:11:26.778Z,22.23
2023-04-06T02:13:58.442Z,16.90
2023-04-06T02:16:31.604Z,17.97
2023-04-06T02:19:00.428Z,20.03
2023-04-06T02:21:28.803Z,23.70
2023-04-06T02:23:57.249Z,20.27
2023-04-06T02:26:27.253Z,19.33
2023-04-06T02:28:56.265Z,22.47
2023-04-06T02:31:24.871Z,24.27
2023-04-06T02:33:54.263Z,25.63
2023-04-06T02:36:23.161Z,20.50
2023-04-06T02:38:51.591Z,19.60
2023-04-06T02:41:20.449Z,25.60
2023-04-06T02:43:50.504Z,21.10
2023-04-06T02:46:28.915Z,22.87
2023-04-06T02:48:57.426Z,21.97
2023-04-06T02:51:27.515Z,23.73
2023-04-06T02:54:01.321Z,21.30
2023-04-06T02:56:29.993Z,21.73
2023-04-06T02:58:59.917Z,21.77
2023-04-06T03:01:31.640Z,22.97
2023-04-06T03:04:03.851Z,27.93
2023-04-06T03:06:32.858Z,21.60
2023-04-06T03:09:10.158Z,24.77
2023-04-06T03:11:41.164Z,21.83
2023-04-06T03:14:11.051Z,25.27
2023-04-06T03:16:39.747Z,27.47
2023-04-06T03:19:08.668Z,23.97
2023-04-06T03:21:38.010Z,23.97
2023-04-06T03:24:07.364Z,25.20
2023-04-06T03:26:36.248Z,27.37
2023-04-06T03:29:08.546Z,30.53
2023-04-06T03:31:39.205Z,21.53
2023-04-06T03:34:46.313Z,23.70
2023-04-06T03:37:15.006Z,23.13
2023-04-06T03:39:49.049Z,27.37
2023-04-06T03:42:22.760Z,26.60
2023-04-06T03:44:55.108Z,27.10
2023-04-06T03:47:25.424Z,25.20
2023-04-06T03:49:58.602Z,28.63
2023-04-06T03:52:27.673Z,29.60
2023-04-06T03:54:58.417Z,28.77
2023-04-06T03:57:26.855Z,33.13
2023-04-06T03:59:55.428Z,23.97
2023-04-06T04:02:25.647Z,33.33
2023-04-06T04:04:54.575Z,26.97
2023-04-06T04:07:23.037Z,21.20
2023-04-06T04:09:52.829Z,34.23
2023-04-06T04:12:21.773Z,28.33
2023-04-06T04:14:50.406Z,31.43
2023-04-06T04:17:18.952Z,25.97
2023-04-06T04:19:48.849Z,28.83
2023-04-06T04:22:17.625Z,26.97
2023-04-06T04:24:46.455Z,23.97
2023-04-06T04:27:15.311Z,29.03
2023-04-06T04:29:44.826Z,27.73
2023-04-06T04:32:16.106Z,25.70
2023-04-06T04:34:45.372Z,27.80
2023-04-06T04:37:36.358Z,31.57
2023-04-06T04:40:06.466Z,29.00
2023-04-06T04:42:44.827Z,27.83
2023-04-06T04:45:19.769Z,34.87
2023-04-06T04:47:48.186Z,33.97
2023-04-06T04:50:18.544Z,37.90
2023-04-06T04:52:51.643Z,38.20
2023-04-06T04:55:24.281Z,39.30
2023-04-06T04:57:56.552Z,40.47
2023-04-06T05:00:34.226Z,36.33
2023-04-06T05:03:03.103Z,38.40
2023-04-06T05:05:33.773Z,38.40
2023-04-06T05:08:04.859Z,40.10
2023-04-06T05:10:47.716Z,39.77
2023-04-06T05:13:16.696Z,34.70
2023-04-06T05:15:47.060Z,33.07
2023-04-06T05:18:35.915Z,32.57
2023-04-06T05:21:05.616Z,35.57
2023-04-06T05:24:05.018Z,41.73
2023-04-06T05:26:35.082Z,32.17
2023-04-06T05:29:09.520Z,31.70
2023-04-06T05:31:40.294Z,30.43
2023-04-06T05:34:10.582Z,38.60
2023-04-06T05:36:39.736Z,35.60
2023-04-06T05:39:19.311Z,39.17
2023-04-06T05:41:52.000Z,34.87
2023-04-06T05:44:31.318Z,29.57
2023-04-06T05:47:13.383Z,30.77
2023-04-06T05:49:44.342Z,30.13
2023-04-06T05:52:19.069Z,27.23
2023-04-06T05:54:51.602Z,31.07
2023-04-06T05:57:20.196Z,31.30
2023-04-06T05:59:50.448Z,30.17
2023-04-06T06:02:19.096Z,28.50
2023-04-06T06:04:51.014Z,26.27
2023-04-06T06:07:20.454Z,33.70
2023-04-06T06:10:00.687Z,31.20
2023-04-06T06:12:38.566Z,29.83
2023-04-06T06:15:09.219Z,33.50
2023-04-06T06:17:42.032Z,30.40
2023-04-06T06:20:11.475Z,30.67
2023-04-06T06:22:41.320Z,29.63
2023-04-06T06:25:16.644Z,27.37
2023-04-06T06:27:47.250Z,30.17
2023-04-06T06:30:19.878Z,31.60
2023-04-06T06:32:52.035Z,32.60
2023-04-06T06:35:21.797Z,39.77
2023-04-06T06:37:51.036Z,33.47
2023-04-06T06:40:25.382Z,28.60
2023-04-06T06:42:55.692Z,31.07
2023-04-06T06:45:33.374Z,30.97
2023-04-06T06:48:04.456Z,29.77
2023-04-06T06:50:33.265Z,35.43
2023-04-06T06:53:02.233Z,39.07
2023-04-06T06:55:32.510Z,35.83
2023-04-06T06:58:01.342Z,27.30
2023-04-06T07:00:29.885Z,28.07
2023-04-06T07:02:58.919Z,31.73
2023-04-06T07:05:28.958Z,26.97
2023-04-06T07:08:00.176Z,29.00
2023-04-06T07:10:28.928Z,24.20
2023-04-06T07:12:59.160Z,30.60
2023-04-06T07:15:27.831Z,33.40
2023-04-06T07:17:56.882Z,29.57
2023-04-06T07:20:26.114Z,26.17
2023-04-06T07:22:55.222Z,28.90
2023-04-06T07:25:25.722Z,29.47
2023-04-06T07:27:58.727Z,26.90
2023-04-06T07:30:29.723Z,26.90
2023-04-06T07:33:01.476Z,22.27
2023-04-06T07:35:31.308Z,27.83
2023-04-06T07:38:00.366Z,32.03
2023-04-06T07:40:29.234Z,29.13
2023-04-06T07:43:01.267Z,33.50
2023-04-06T07:45:29.864Z,25.67
2023-04-06T07:47:59.130Z,26.47
2023-04-06T07:50:29.094Z,25.83
2023-04-06T07:52:58.950Z,27.43
2023-04-06T07:55:27.667Z,27.10
2023-04-06T07:57:56.298Z,29.40
2023-04-06T08:00:26.657Z,25.03
2023-04-06T08:02:55.287Z,25.07
2023-04-06T08:05:24.101Z,28.17
2023-04-06T08:07:52.863Z,31.87
2023-04-06T08:10:21.677Z,24.13
2023-04-06T08:12:50.156Z,26.97
2023-04-06T08:15:20.470Z,23.37
2023-04-06T08:17:50.515Z,35.10
2023-04-06T08:20:19.251Z,30.47
2023-04-06T08:22:47.770Z,23.43
2023-04-06T08:25:16.589Z,21.73
2023-04-06T08:27:45.337Z,27.27
2023-04-06T08:30:16.051Z,27.60
2023-04-06T08:32:44.723Z,23.10
2023-04-06T08:35:14.883Z,26.50
2023-04-06T08:37:43.518Z,26.13
2023-04-06T08:40:13.480Z,26.97
2023-04-06T08:42:47.522Z,24.40
2023-04-06T08:45:18.881Z,20.93
2023-04-06T08:47:49.341Z,18.03
2023-04-06T08:50:19.940Z,21.93
2023-04-06T08:52:50.584Z,23.60
2023-04-06T08:55:19.169Z,21.07
2023-04-06T08:57:49.060Z,24.83
2023-04-06T09:00:18.936Z,20.93
2023-04-06T09:02:48.499Z,23.73
2023-04-06T09:05:18.943Z,25.30
2023-04-06T09:07:47.623Z,24.77
2023-04-06T09:10:18.231Z,23.50
2023-04-06T09:12:46.794Z,26.17
2023-04-06T09:15:24.139Z,21.80
2023-04-06T09:17:55.661Z,27.63
2023-04-06T09:20:28.677Z,24.63
2023-04-06T09:22:57.831Z,23.77
2023-04-06T09:25:28.040Z,25.80
2023-04-06T09:28:03.378Z,19.00
2023-04-06T09:30:32.457Z,21.97
2023-04-06T09:33:01.562Z,22.43
2023-04-06T09:35:32.508Z,23.37
2023-04-06T09:38:01.334Z,24.70
2023-04-06T09:40:33.031Z,21.77
2023-04-06T09:43:05.588Z,19.60
2023-04-06T09:45:34.824Z,28.97
2023-04-06T09:48:04.185Z,24.57
2023-04-06T09:50:35.490Z,25.47
2023-04-06T09:53:05.219Z,20.37
2023-04-06T09:55:37.695Z,23.10
2023-04-06T09:58:08.386Z,28.67
2023-04-06T10:00:45.436Z,24.67
2023-04-06T10:03:23.341Z,23.97
2023-04-06T10:05:59.570Z,23.43
2023-04-06T10:08:32.739Z,22.73
2023-04-06T10:11:02.998Z,23.47
2023-04-06T10:13:31.524Z,23.03
2023-04-06T10:16:02.816Z,23.80
2023-04-06T10:18:32.038Z,23.70
2023-04-06T10:21:06.594Z,20.90
2023-04-06T10:23:37.288Z,23.07
2023-04-06T10:26:06.430Z,23.13
2023-04-06T10:28:37.020Z,26.63
2023-04-06T10:31:08.153Z,26.50
2023-04-06T10:33:37.081Z,22.63
2023-04-06T10:36:14.120Z,18.27
2023-04-06T10:38:44.266Z,25.80
2023-04-06T10:41:14.741Z,19.77
2023-04-06T10:43:43.940Z,19.73
2023-04-06T10:46:13.068Z,19.63
2023-04-06T10:48:43.164Z,20.20
2023-04-06T10:51:15.368Z,20.63
2023-04-06T10:53:46.341Z,20.47
2023-04-06T10:56:16.066Z,20.00
2023-04-06T10:58:49.064Z,21.20
2023-04-06T11:01:18.880Z,21.63
2023-04-06T11:03:48.089Z,20.83
2023-04-06T11:06:25.754Z,19.47
2023-04-06T11:08:54.951Z,18.63
2023-04-06T11:11:26.940Z,14.80
2023-04-06T11:13:57.043Z,18.37
2023-04-06T11:16:27.388Z,20.83
2023-04-06T11:18:57.888Z,19.03
2023-04-06T11:21:40.505Z,15.73
2023-04-06T11:24:10.922Z,19.97
2023-04-06T11:26:41.429Z,21.97
2023-04-06T11:29:10.332Z,15.97
2023-04-06T11:31:43.914Z,19.23
2023-04-06T11:34:18.606Z,22.80
2023-04-06T11:36:49.894Z,16.47
2023-04-06T11:39:22.292Z,36.60
2023-04-06T11:41:51.177Z,16.27
2023-04-06T11:44:34.240Z,13.80
2023-04-06T11:47:03.935Z,15.37
2023-04-06T11:49:34.075Z,13.43
2023-04-06T11:52:04.368Z,12.77
2023-04-06T11:54:34.617Z,16.60
2023-04-06T11:57:04.210Z,16.50
2023-04-06T11:59:33.240Z,15.13
2023-04-06T12:02:03.286Z,12.37
2023-04-06T12:04:32.383Z,11.73
2023-04-06T12:07:01.298Z,10.97
2023-04-06T12:09:31.678Z,14.67
2023-04-06T12:12:00.226Z,13.10
2023-04-06T12:14:28.887Z,11.40
2023-04-06T12:16:57.603Z,13.27
2023-04-06T12:19:27.113Z,12.07
2023-04-06T12:21:56.030Z,13.23
2023-04-06T12:24:24.628Z,10.80
2023-04-06T12:27:06.937Z,13.27
2023-04-06T12:29:38.365Z,15.60
2023-04-06T12:32:07.743Z,12.47
2023-04-06T12:34:36.465Z,11.20
2023-04-06T12:37:05.117Z,13.10
2023-04-06T12:39:33.824Z,11.00
2023-04-06T12:42:04.488Z,11.77
2023-04-06T12:44:33.162Z,13.07
2023-04-06T12:47:02.384Z,13.23
2023-04-06T12:49:32.093Z,12.63
2023-04-06T12:52:01.346Z,16.43
2023-04-06T12:54:30.129Z,13.40
2023-04-06T12:56:58.784Z,11.50
2023-04-06T12:59:29.299Z,12.47
2023-04-06T13:01:57.951Z,15.03
2023-04-06T13:04:27.411Z,16.00
2023-04-06T13:06:55.955Z,13.03
2023-04-06T13:09:24.515Z,15.87
2023-04-06T13:11:52.966Z,16.40
2023-04-06T13:14:22.027Z,16.33
2023-04-06T13:16:52.386Z,18.13
2023-04-06T13:19:20.968Z,15.00
2023-04-06T13:21:49.591Z,17.03
2023-04-06T13:24:18.490Z,17.13
2023-04-06T13:26:47.020Z,20.23
2023-04-06T13:29:15.452Z,16.17
2023-04-06T13:31:44.158Z,15.47
2023-04-06T13:34:14.170Z,15.93
2023-04-06T13:36:43.864Z,19.03
2023-04-06T13:39:12.307Z,19.40
2023-04-06T13:41:41.294Z,21.63
2023-04-06T13:44:09.867Z,19.40
2023-04-06T13:46:38.361Z,18.10
2023-04-06T13:49:07.363Z,20.67
2023-04-06T13:51:37.457Z,22.43
2023-04-06T13:54:07.948Z,18.43
2023-04-06T13:56:37.827Z,18.80
2023-04-06T13:59:06.662Z,20.70
2023-04-06T14:01:35.266Z,21.93
2023-04-06T14:04:04.068Z,22.47
2023-04-06T14:06:32.735Z,23.90
2023-04-06T14:09:02.830Z,21.67
2023-04-06T14:11:31.510Z,19.77
2023-04-06T14:13:59.993Z,21.67
2023-04-06T14:16:28.576Z,23.93
2023-04-06T14:18:58.887Z,27.90
2023-04-06T14:21:27.637Z,21.60
2023-04-06T14:23:58.043Z,22.70
2023-04-06T14:26:29.929Z,20.33
2023-04-06T14:29:08.694Z,24.93
2023-04-06T14:31:37.251Z,26.90
2023-04-06T14:34:06.711Z,24.20
2023-04-06T14:36:37.596Z,25.93
2023-04-06T14:39:07.012Z,23.17
2023-04-06T14:41:36.348Z,25.50
2023-04-06T14:44:05.956Z,26.67
2023-04-06T14:46:35.919Z,26.03
2023-04-06T14:49:04.698Z,28.13
2023-04-06T14:51:36.363Z,27.97
2023-04-06T14:54:05.538Z,25.00
2023-04-06T14:56:34.042Z,24.03
2023-04-06T14:59:02.896Z,28.63
2023-04-06T15:01:36.167Z,30.13
2023-04-06T15:04:07.247Z,24.17
2023-04-06T15:06:36.027Z,30.47
2023-04-06T15:09:04.997Z,26.23
2023-04-06T15:11:33.548Z,30.23
2023-04-06T15:14:03.051Z,23.57
2023-04-06T15:16:33.720Z,25.27
2023-04-06T15:19:03.121Z,26.23
2023-04-06T15:21:33.655Z,28.30
2023-04-06T15:24:02.952Z,29.10
2023-04-06T15:26:31.613Z,27.63
2023-04-06T15:29:02.069Z,22.67
2023-04-06T15:31:37.683Z,25.93
2023-04-06T15:34:09.125Z,27.13
2023-04-06T15:36:39.980Z,27.00
2023-04-06T15:39:10.124Z,28.13
2023-04-06T15:41:38.926Z,29.80
2023-04-06T15:44:07.582Z,28.03
2023-04-06T15:46:36.732Z,26.00
2023-04-06T15:49:05.731Z,25.30
2023-04-06T15:51:34.287Z,23.77
2023-04-06T15:54:04.251Z,24.70
2023-04-06T15:56:34.332Z,27.37
2023-04-06T15:59:04.443Z,29.90
2023-04-06T16:01:33.176Z,25.87
2023-04-06T16:04:02.167Z,24.77
2023-04-06T16:06:32.325Z,23.83
2023-04-06T16:09:00.917Z,24.97
2023-04-06T16:11:32.504Z,20.87
2023-04-06T16:14:01.159Z,25.67
2023-04-06T16:16:30.025Z,25.07
2023-04-06T16:18:58.892Z,22.13
2023-04-06T16:21:28.896Z,25.10
2023-04-06T16:23:59.710Z,24.17
2023-04-06T16:26:28.838Z,23.70
2023-04-06T16:28:59.696Z,29.37
2023-04-06T16:31:28.567Z,23.67
2023-04-06T16:33:58.415Z,25.37
2023-04-06T16:36:29.554Z,26.50
2023-04-06T16:38:58.480Z,28.87
2023-04-06T16:41:28.727Z,31.63
2023-04-06T16:43:59.036Z,27.40
2023-04-06T16:46:31.389Z,27.97
2023-04-06T16:49:00.174Z,26.37
2023-04-06T16:51:28.956Z,32.50
2023-04-06T16:53:57.428Z,27.97
2023-04-06T16:56:25.942Z,27.60
2023-04-06T16:58:54.352Z,31.90
2023-04-06T17:01:26.055Z,28.37
2023-04-06T17:03:55.191Z,28.10
2023-04-06T17:06:24.241Z,29.37
2023-04-06T17:08:54.036Z,27.90
2023-04-06T17:11:28.168Z,28.83
2023-04-06T17:14:01.317Z,30.03
2023-04-06T17:16:31.302Z,27.77
2023-04-06T17:18:59.824Z,27.73
2023-04-06T17:21:28.558Z,21.00
2023-04-06T17:23:57.020Z,28.70
2023-04-06T17:26:25.702Z,24.80
2023-04-06T17:28:54.411Z,22.40
2023-04-06T17:31:23.454Z,20.60
2023-04-06T17:33:53.355Z,19.20
2023-04-06T17:36:22.086Z,19.50
2023-04-06T17:38:50.680Z,20.17
2023-04-06T17:41:19.165Z,23.03
2023-04-06T17:43:48.454Z,22.43
2023-04-06T17:46:17.237Z,21.80
2023-04-06T17:48:46.660Z,24.80
2023-04-06T17:51:19.120Z,23.80
2023-04-06T17:53:48.444Z,22.33
2023-04-06T17:56:17.248Z,23.37
2023-04-06T17:58:45.900Z,19.37
2023-04-06T18:01:14.805Z,20.10
2023-04-06T18:03:43.399Z,21.70
2023-04-06T18:06:13.404Z,25.50
2023-04-06T18:08:44.037Z,24.07
2023-04-06T18:11:17.161Z,22.47
2023-04-06T18:13:45.817Z,22.60
2023-04-06T18:16:14.522Z,23.03
2023-04-06T18:18:43.162Z,24.77
2023-04-06T18:21:11.686Z,22.97
2023-04-06T18:23:40.146Z,23.30
2023-04-06T18:26:16.760Z,23.10
2023-04-06T18:28:45.636Z,36.10
2023-04-06T18:31:14.270Z,22.93
2023-04-06T18:33:43.936Z,21.90
2023-04-06T18:36:14.343Z,25.17
2023-04-06T18:38:45.482Z,22.37
2023-04-06T18:41:15.481Z,22.73
2023-04-06T18:43:44.019Z,21.60
2023-04-06T18:46:14.213Z,22.30
2023-04-06T18:48:42.874Z,18.53
2023-04-06T18:51:11.655Z,19.87
2023-04-06T18:53:40.227Z,18.70
2023-04-06T18:56:16.739Z,20.33
2023-04-06T18:58:45.186Z,19.03
2023-04-06T19:01:22.416Z,19.90
2023-04-06T19:03:51.287Z,22.27
2023-04-06T19:06:19.885Z,23.40
2023-04-06T19:08:48.734Z,21.50
2023-04-06T19:11:19.962Z,18.07
2023-04-06T19:13:50.311Z,19.93
2023-04-06T19:16:19.430Z,20.03
2023-04-06T19:18:48.064Z,18.53
2023-04-06T19:21:17.743Z,23.70
2023-04-06T19:23:46.923Z,22.40
2023-04-06T19:26:16.507Z,21.83
2023-04-06T19:28:47.182Z,22.53
2023-04-06T19:31:17.350Z,23.97
2023-04-06T19:33:47.730Z,22.80
2023-04-06T19:36:16.959Z,19.93
2023-04-06T19:38:45.544Z,21.07
2023-04-06T19:41:14.035Z,21.87
2023-04-06T19:43:42.504Z,22.27
2023-04-06T19:46:12.426Z,20.70
2023-04-06T19:48:41.016Z,20.87
2023-04-06T19:51:09.789Z,21.93
2023-04-06T19:53:38.523Z,17.40
2023-04-06T19:56:07.031Z,22.03
2023-04-06T19:58:35.515Z,20.13
2023-04-06T20:01:04.495Z,26.43
2023-04-06T20:03:36.573Z,20.33
2023-04-06T20:06:05.413Z,20.63
2023-04-06T20:08:34.032Z,22.57
2023-04-06T20:11:03.287Z,19.53
2023-04-06T20:13:32.066Z,21.50
2023-04-06T20:16:00.975Z,19.07
2023-04-06T20:18:29.500Z,19.97
2023-04-06T20:20:59.520Z,18.57
2023-04-06T20:23:28.059Z,19.80
2023-04-06T20:25:56.576Z,18.33
2023-04-06T20:28:25.302Z,18.47
2023-04-06T20:30:54.315Z,18.40
2023-04-06T20:33:24.234Z,17.37
2023-04-06T20:35:59.764Z,18.33
2023-04-06T20:41:00.331Z,18.57
2023-04-06T20:43:29.604Z,18.60
2023-04-06T20:45:58.760Z,15.77
2023-04-06T20:48:27.466Z,17.60
2023-04-06T20:50:56.087Z,20.73
2023-04-06T20:53:26.188Z,18.80
2023-04-06T20:55:54.895Z,18.43
2023-04-06T20:58:26.558Z,17.97
2023-04-06T21:00:55.104Z,18.37
2023-04-06T21:03:24.335Z,20.10
2023-04-06T21:05:53.869Z,21.33
2023-04-06T21:08:22.491Z,22.37
2023-04-06T21:10:53.683Z,21.40
2023-04-06T21:13:22.375Z,17.17
2023-04-06T21:15:51.827Z,20.67
2023-04-06T21:18:21.005Z,17.63
2023-04-06T21:20:49.858Z,26.30
2023-04-06T21:23:18.647Z,22.53
2023-04-06T21:25:47.103Z,20.50
2023-04-06T21:28:16.959Z,21.10
2023-04-06T21:30:45.593Z,22.37
2023-04-06T21:33:14.272Z,26.77
2023-04-06T21:35:43.349Z,20.83
2023-04-06T21:38:12.021Z,24.20
2023-04-06T21:40:40.751Z,22.63
2023-04-06T21:43:09.364Z,23.40
2023-04-06T21:45:40.445Z,23.27
2023-04-06T21:48:09.142Z,26.97
2023-04-06T21:50:41.685Z,27.60
2023-04-06T21:53:10.600Z,31.60
2023-04-06T21:55:44.146Z,29.53
2023-04-06T21:58:12.927Z,31.87
2023-04-06T22:00:43.163Z,35.47
2023-04-06T22:03:11.891Z,40.87
2023-04-06T22:05:43.520Z,47.77
2023-04-06T22:08:17.930Z,35.30
2023-04-06T22:10:54.297Z,36.37
2023-04-06T22:13:22.787Z,37.73
2023-04-06T22:15:52.703Z,38.60
2023-04-06T22:18:21.852Z,36.60
2023-04-06T22:20:50.670Z,40.30
2023-04-06T22:23:19.175Z,45.93
2023-04-06T22:25:47.907Z,42.50
2023-04-06T22:28:16.240Z,44.40
2023-04-06T22:30:44.734Z,45.43
2023-04-06T22:33:14.652Z,45.83
2023-04-06T22:35:43.354Z,49.10
2023-04-06T22:38:11.883Z,43.17
2023-04-06T22:40:40.524Z,43.73
2023-04-06T22:43:08.953Z,46.27
2023-04-06T22:45:37.384Z,54.50
2023-04-06T22:48:05.936Z,49.37
2023-04-06T22:50:35.691Z,46.83
2023-04-06T22:53:04.125Z,55.37
2023-04-06T22:55:32.728Z,48.30
2023-04-06T22:58:01.137Z,49.83
2023-04-06T23:00:29.448Z,46.20
2023-04-06T23:02:58.256Z,49.73
2023-04-06T23:05:26.863Z,58.17
2023-04-06T23:07:57.120Z,46.93
2023-04-06T23:10:25.564Z,55.37
2023-04-06T23:12:53.919Z,54.47
2023-04-06T23:15:22.331Z,54.57
2023-04-06T23:17:50.900Z,58.40
2023-04-06T23:20:19.538Z,55.00
2023-04-06T23:22:48.152Z,54.00
2023-04-06T23:25:17.968Z,66.67
2023-04-06T23:27:46.387Z,63.90
2023-04-06T23:30:14.999Z,62.67
2023-04-06T23:32:43.672Z,73.17
2023-04-06T23:35:12.358Z,72.10
2023-04-06T23:37:40.805Z,71.37
2023-04-06T23:40:10.491Z,80.93
2023-04-06T23:42:40.494Z,88.70
2023-04-06T23:45:10.058Z,88.23
2023-04-06T23:47:38.538Z,83.83
2023-04-06T23:50:08.241Z,94.57
2023-04-06T23:52:36.646Z,101.33
2023-04-06T23:55:05.761Z,104.80
2023-04-06T23:57:34.259Z,113.67
